Terminal Aerodrome Forecast
Issued by NWS

Home | Current Version | Previous Version | Text Only | Print | Product List | Glossary On
Versions: 1 2 3 4 5 6 7 8 9 10 11 12 13 14 15 16 17 18 19 20 21 22 23 24 25 26 27 28 29 30 31 32 33 34 35 36 37 38 39
000
FTUS45 KSLC 030541
TAFPVU
TAF
KPVU 030541Z 0306/0406 34009KT P6SM VCSH SCT020 BKN035
      TEMPO 0306/0307 6SM -SHSN SCT010 BKN025
     FM031600 30014G22KT 2SM -SN BR SCT008 OVC020
     FM031800 32010G18KT 2SM -SHSN BR BKN015
     FM032000 33010G16KT P6SM VCSH SCT025 BKN040
     FM040200 33007KT P6SM FEW040
      AMD LTD TO CLD VIS AND WIND=

USA.gov is the U.S. government's official web portal to all federal, state and local government web resources and services.